D/T METAR WX W/DIR W/SPE G/SPE TEMP DEWP
7/12/19 23:00 EICK 072300Z 26023G35KT 9999 FEW012 SCT035 BKN260 11/07 Q0998 NOSIG W (260°) 26.5mph 40.3mph 11°C 7°C
7/12/19 22:30 EICK 072230Z 25022KT 9999 SCT009 SCT016 BKN035 12/10 Q0998 NOSIG WSW (250°) 25.3mph 12°C 10°C
7/12/19 22:00 EICK 072200Z 24019G31KT 9999 SCT004 BKN009 BKN016 12/12 Q0998 NOSIG WSW (240°) 21.9mph 35.7mph 12°C 12°C
7/12/19 21:30 EICK 072130Z 23021KT 4000 -RA FEW002 BKN004 12/12 Q0998 TEMPO 2000 BKN002 -RA SW (230°) 24.2mph 12°C 12°C
7/12/19 21:00 EICK 072100Z 23020KT 3000 -RA FEW002 BKN004 12/11 Q0998 RERA TEMPO 2000 BKN002 -RA SW (230°) 23.0mph 12°C 11°C
7/12/19 20:30 EICK 072030Z 22023KT 3000 RA SCT002 BKN004 12/11 Q0998 TEMPO 2000 BKN002 RA SW (220°) 26.5mph 12°C 11°C
7/12/19 20:00 EICK 072000Z 22024KT 4000 RA FEW002 BKN004 11/11 Q0999 TEMPO 2000 BKN002 RA SW (220°) 27.6mph 11°C 11°C
7/12/19 19:30 EICK 071930Z 21025KT 4000 RA BKN003 11/11 Q0999 TEMPO 0800 RA SSW (210°) 28.8mph 11°C 11°C
7/12/19 19:00 EICK 071900Z 21019KT 3500 RA BKN003 10/10 Q1001 TEMPO 0800 RA SSW (210°) 21.9mph 10°C 10°C
7/12/19 18:30 EICK 071830Z 20019KT 2000 -RA BKN002 10/10 Q1001 TEMPO 0800 -RA SSW (200°) 21.9mph 10°C 10°C
7/12/19 18:00 EICK 071800Z 20018KT 1600 -RA BKN002 10/09 Q1003 TEMPO 0800 -RA SSW (200°) 20.7mph 10°C 9°C
7/12/19 17:30 EICK 071730Z 20015KT 3000 -RA BKN003 09/09 Q1003 TEMPO 1500 -RA SSW (200°) 17.3mph 9°C 9°C
7/12/19 17:00 EICK 071700Z 20019G30KT 9999 BKN005 09/09 Q1004 NOSIG SSW (200°) 21.9mph 34.5mph 9°C 9°C
7/12/19 16:30 EICK 071630Z 21018KT 9999 -DZ BKN005 BKN010 09/09 Q1005 TEMPO 3000 BKN003 -DZ SSW (210°) 20.7mph 9°C 9°C
7/12/19 16:00 EICK 071600Z 20019G31KT 3000 -RADZ BKN002 09/09 Q1006 NOSIG -RA -DZ SSW (200°) 21.9mph 35.7mph 9°C 9°C
7/12/19 15:30 EICK 071530Z 20016KT 9000 -DZ BKN003 09/09 Q1007 NOSIG -DZ SSW (200°) 18.4mph 9°C 9°C
7/12/19 15:00 EICK 071500Z 20018KT 9999 -DZ BKN003 09/09 Q1007 NOSIG -DZ SSW (200°) 20.7mph 9°C 9°C
7/12/19 14:30 EICK 071430Z 21018G31KT 9999 BKN005 09/08 Q1008 NOSIG SSW (210°) 20.7mph 35.7mph 9°C 8°C
7/12/19 14:00 EICK 071400Z 21018KT 9999 -DZ BKN005 09/09 Q1008 NOSIG -DZ SSW (210°) 20.7mph 9°C 9°C
7/12/19 13:30 EICK 071330Z 22016KT 9999 BKN007 BKN014 09/08 Q1009 NOSIG SW (220°) 18.4mph 9°C 8°C
7/12/19 13:00 EICK 071300Z 21016KT 9000 -DZ BKN003 09/09 Q1009 NOSIG -DZ SSW (210°) 18.4mph 9°C 9°C
7/12/19 12:30 EICK 071230Z 21018KT 8000 -DZ BKN004 10/09 Q1010 NOSIG -DZ SSW (210°) 20.7mph 10°C 9°C
7/12/19 12:00 EICK 071200Z 22015KT 9999 -DZ BKN004 10/09 Q1011 NOSIG -DZ SW (220°) 17.3mph 10°C 9°C
7/12/19 11:30 EICK 071130Z 22014KT 9999 -DZ BKN005 09/09 Q1011 NOSIG -DZ SW (220°) 16.1mph 9°C 9°C
7/12/19 11:00 EICK 071100Z 22015KT 9999 BKN005 09/08 Q1011 NOSIG SW (220°) 17.3mph 9°C 8°C
7/12/19 10:30 EICK 071030Z 22013KT 9999 BKN005 09/08 Q1011 NOSIG SW (220°) 15.0mph 9°C 8°C
7/12/19 10:00 EICK 071000Z 23012KT 9999 BKN004 09/08 Q1012 NOSIG SW (230°) 13.8mph 9°C 8°C
7/12/19 09:30 EICK 070930Z 23008KT 9999 BKN004 08/08 Q1012 NOSIG SW (230°) 9.2mph 8°C 8°C
7/12/19 09:00 EICK 070900Z 23011KT 7000 BKN003 08/08 Q1012 NOSIG SW (230°) 12.7mph 8°C 8°C
7/12/19 08:30 EICK 070830Z 23009KT 9999 BKN003 08/08 Q1012 NOSIG SW (230°) 10.4mph 8°C 8°C
7/12/19 08:00 EICK 070800Z 24009KT 9999 -DZ BKN003 08/08 Q1012 NOSIG -DZ WSW (240°) 10.4mph 8°C 8°C
7/12/19 07:30 EICK 070730Z 22008KT 9999 BKN006 07/07 Q1012 NOSIG SW (220°) 9.2mph 7°C 7°C
7/12/19 07:00 EICK 070700Z 23006KT 9999 FEW007 SCT013 07/06 Q1012 NOSIG SW (230°) 6.9mph 7°C 6°C
7/12/19 06:30 EICK 070630Z 25006KT 200V330 9999 FEW004 BKN013 07/07 Q1012 NOSIG WSW (250°) 6.9mph 7°C 7°C
7/12/19 06:00 EICK 070600Z 23006KT 9999 BKN005 07/07 Q1012 NOSIG SW (230°) 6.9mph 7°C 7°C
7/12/19 05:30 EICK 070530Z 22007KT 9999 FEW005 SCT016 05/05 Q1012 NOSIG SW (220°) 8.1mph 5°C 5°C
7/12/19 05:00 EICK 070500Z 21005KT 9999 SCT002 SCT016 05/05 Q1012 NOSIG SSW (210°) 5.8mph 5°C 5°C
7/12/19 04:30 EICK 070430Z 23007KT 9999 FEW012 SCT015 06/06 Q1012 NOSIG SW (230°) 8.1mph 6°C 6°C
7/12/19 04:00 EICK 070400Z 24008KT 9999 FEW012 BKN016 07/06 Q1012 NOSIG WSW (240°) 9.2mph 7°C 6°C
7/12/19 03:30 EICK 070330Z 25009KT 9999 FEW012 BKN017 07/06 Q1013 NOSIG WSW (250°) 10.4mph 7°C 6°C
7/12/19 03:00 EICK 070300Z 25010KT 9999 FEW012 BKN018 06/05 Q1013 NOSIG WSW (250°) 11.5mph 6°C 5°C
7/12/19 02:30 EICK 070230Z 25010KT 9999 FEW012 BKN018 06/05 Q1013 NOSIG WSW (250°) 11.5mph 6°C 5°C
7/12/19 02:00 EICK 070200Z 24009KT 9999 FEW012 06/05 Q1012 NOSIG WSW (240°) 10.4mph 6°C 5°C
7/12/19 01:30 EICK 070130Z 23008KT 9999 FEW018 SCT025 06/05 Q1012 NOSIG SW (230°) 9.2mph 6°C 5°C
7/12/19 01:00 EICK 070100Z 25007KT 9999 FEW018 SCT025 06/05 Q1012 NOSIG WSW (250°) 8.1mph 6°C 5°C
7/12/19 00:30 EICK 070030Z 24007KT 9999 FEW018 BKN027 07/05 Q1012 NOSIG WSW (240°) 8.1mph 7°C 5°C
7/12/19 00:00 EICK 070000Z 24008KT 9999 FEW018 BKN030 06/05 Q1012 NOSIG WSW (240°) 9.2mph 6°C 5°C
6/12/19 23:30 EICK 062330Z 24007KT 9999 FEW018 BKN032 06/04 Q1012 NOSIG WSW (240°) 8.1mph 6°C 4°C